createdAt,value
2018-08-22T00:00:06.621Z,2.50
2018-08-22T00:02:34.440Z,2.83
2018-08-22T00:05:02.166Z,3.07
2018-08-22T00:07:29.924Z,2.70
2018-08-22T00:09:57.698Z,2.50
2018-08-22T00:12:25.549Z,2.20
2018-08-22T00:14:53.341Z,2.87
2018-08-22T00:17:39.591Z,2.43
2018-08-22T00:20:07.382Z,2.13
2018-08-22T00:22:35.174Z,2.57
2018-08-22T00:25:02.892Z,2.60
2018-08-22T00:27:30.692Z,2.97
2018-08-22T00:29:58.441Z,2.23
2018-08-22T00:32:26.705Z,2.80
2018-08-22T00:34:54.591Z,2.80
2018-08-22T00:37:22.431Z,2.47
2018-08-22T00:39:52.347Z,2.37
2018-08-22T00:42:20.161Z,2.40
2018-08-22T00:44:48.109Z,2.20
2018-08-22T00:47:15.910Z,2.50
2018-08-22T00:49:46.009Z,3.17
2018-08-22T00:52:14.140Z,3.10
2018-08-22T00:54:41.933Z,2.40
2018-08-22T00:57:09.691Z,2.23
2018-08-22T00:59:37.756Z,2.80
2018-08-22T01:02:05.738Z,2.70
2018-08-22T01:04:33.495Z,2.50
2018-08-22T01:07:01.266Z,2.13
2018-08-22T01:09:29.142Z,1.87
2018-08-22T01:11:57.887Z,2.30
2018-08-22T01:14:25.984Z,2.00
2018-08-22T01:16:53.750Z,2.40
2018-08-22T01:19:22.527Z,2.13
2018-08-22T01:21:50.346Z,2.10
2018-08-22T01:24:18.171Z,3.07
2018-08-22T01:26:46.539Z,2.30
2018-08-22T01:29:15.785Z,2.20
2018-08-22T01:31:43.581Z,2.23
2018-08-22T01:34:11.979Z,2.13
2018-08-22T01:36:40.566Z,2.57
2018-08-22T01:39:08.678Z,2.30
2018-08-22T01:41:36.816Z,2.20
2018-08-22T01:44:04.687Z,2.37
2018-08-22T01:46:33.138Z,2.40
2018-08-22T01:49:00.896Z,2.33
2018-08-22T01:51:28.655Z,2.30
2018-08-22T01:53:56.675Z,2.60
2018-08-22T01:56:24.389Z,2.03
2018-08-22T01:58:52.363Z,2.50
2018-08-22T02:01:21.467Z,2.20
2018-08-22T02:03:49.653Z,2.47
2018-08-22T02:06:17.420Z,2.60
2018-08-22T02:08:45.268Z,2.53
2018-08-22T02:11:12.923Z,2.43
2018-08-22T02:13:40.546Z,2.43
2018-08-22T02:16:10.523Z,2.30
2018-08-22T02:18:38.223Z,2.60
2018-08-22T02:21:06.322Z,2.27
2018-08-22T02:23:34.152Z,2.30
2018-08-22T02:26:02.484Z,2.33
2018-08-22T02:28:30.263Z,2.30
2018-08-22T02:30:58.079Z,2.10
2018-08-22T02:33:26.348Z,2.30
2018-08-22T02:35:54.131Z,2.30
2018-08-22T02:38:24.354Z,2.27
2018-08-22T02:40:53.042Z,2.30
2018-08-22T02:43:20.735Z,2.33
2018-08-22T02:45:48.412Z,2.07
2018-08-22T02:48:16.869Z,2.43
2018-08-22T02:50:44.598Z,2.20
2018-08-22T02:53:12.315Z,2.40
2018-08-22T02:55:40.466Z,2.00
2018-08-22T02:58:08.197Z,2.53
2018-08-22T03:00:36.760Z,2.20
2018-08-22T03:03:04.553Z,2.70
2018-08-22T03:05:32.329Z,2.30
2018-08-22T03:08:00.081Z,2.20
2018-08-22T03:10:27.697Z,2.10
2018-08-22T03:12:55.420Z,2.17
2018-08-22T03:15:23.036Z,2.50
2018-08-22T03:17:50.722Z,2.20
2018-08-22T03:20:18.454Z,2.27
2018-08-22T03:22:47.395Z,2.73
2018-08-22T03:25:15.207Z,2.23
2018-08-22T03:27:42.914Z,2.17
2018-08-22T03:30:10.522Z,2.37
2018-08-22T03:32:38.251Z,2.20
2018-08-22T03:35:05.843Z,2.23
2018-08-22T03:37:33.684Z,1.87
2018-08-22T03:40:01.455Z,2.60
2018-08-22T03:42:29.203Z,2.00
2018-08-22T03:44:56.938Z,2.60
2018-08-22T03:47:24.612Z,1.97
2018-08-22T03:49:52.911Z,2.23
2018-08-22T03:52:26.790Z,2.13
2018-08-22T03:54:54.476Z,2.43
2018-08-22T03:57:22.033Z,2.60
2018-08-22T03:59:50.280Z,2.50
2018-08-22T04:02:17.983Z,2.23
2018-08-22T04:04:46.097Z,2.57
2018-08-22T04:07:13.920Z,2.40
2018-08-22T04:09:41.753Z,2.23
2018-08-22T04:12:09.514Z,2.80
2018-08-22T04:14:37.497Z,2.00
2018-08-22T04:17:06.641Z,2.73
2018-08-22T04:19:34.784Z,2.27
2018-08-22T04:22:02.565Z,2.23
2018-08-22T04:24:30.524Z,2.80
2018-08-22T04:26:58.483Z,2.30
2018-08-22T04:29:26.991Z,2.77
2018-08-22T04:31:54.819Z,2.33
2018-08-22T04:34:22.600Z,2.67
2018-08-22T04:36:51.276Z,2.10
2018-08-22T04:39:19.024Z,2.50
2018-08-22T04:41:47.314Z,2.63
2018-08-22T04:44:15.290Z,2.80
2018-08-22T04:46:43.141Z,2.50
2018-08-22T04:49:10.773Z,2.17
2018-08-22T04:51:38.606Z,2.20
2018-08-22T04:54:06.309Z,2.50
2018-08-22T04:56:34.102Z,2.67
2018-08-22T04:59:01.803Z,3.47
2018-08-22T05:01:30.424Z,2.20
2018-08-22T05:03:58.221Z,2.53
2018-08-22T05:06:28.729Z,2.30
2018-08-22T05:08:59.171Z,2.83
2018-08-22T05:11:27.735Z,2.60
2018-08-22T05:13:55.428Z,2.40
2018-08-22T05:16:24.796Z,2.53
2018-08-22T05:18:52.425Z,2.63
2018-08-22T05:21:20.158Z,2.40
2018-08-22T05:23:47.869Z,3.00
2018-08-22T05:26:16.335Z,2.40
2018-08-22T05:28:45.078Z,3.00
2018-08-22T05:31:13.066Z,2.40
2018-08-22T05:33:42.000Z,2.00
2018-08-22T05:36:11.134Z,2.43
2018-08-22T05:38:38.810Z,2.40
2018-08-22T05:41:06.582Z,1.97
2018-08-22T05:43:34.196Z,1.97
2018-08-22T05:46:01.879Z,2.23
2018-08-22T05:48:30.161Z,3.03
2018-08-22T05:50:57.826Z,2.33
2018-08-22T05:53:26.756Z,2.10
2018-08-22T05:55:54.387Z,2.30
2018-08-22T05:58:22.341Z,2.50
2018-08-22T06:00:49.949Z,3.23
2018-08-22T06:03:17.735Z,2.27
2018-08-22T06:05:45.373Z,2.33
2018-08-22T06:08:13.326Z,2.20
2018-08-22T06:10:41.075Z,2.30
2018-08-22T06:13:08.667Z,2.60
2018-08-22T06:15:38.055Z,2.07
2018-08-22T06:18:05.734Z,2.13
2018-08-22T06:20:33.517Z,2.30
2018-08-22T06:23:01.144Z,2.50
2018-08-22T06:25:28.865Z,2.30
2018-08-22T06:27:56.475Z,2.73
2018-08-22T06:30:24.049Z,1.80
2018-08-22T06:32:51.713Z,1.90
2018-08-22T06:35:19.619Z,1.73
2018-08-22T06:37:48.238Z,2.03
2018-08-22T06:40:16.318Z,1.80
2018-08-22T06:42:43.970Z,1.50
2018-08-22T06:45:11.701Z,3.23
2018-08-22T06:47:39.498Z,2.07
2018-08-22T06:50:07.240Z,2.17
2018-08-22T06:52:35.550Z,2.10
2018-08-22T06:55:03.731Z,1.90
2018-08-22T06:57:32.475Z,2.33
2018-08-22T07:00:00.483Z,2.47
2018-08-22T07:02:29.711Z,2.10
2018-08-22T07:04:57.506Z,2.20
2018-08-22T07:07:26.318Z,2.70
2018-08-22T07:09:53.999Z,1.73
2018-08-22T07:12:21.575Z,2.40
2018-08-22T07:14:49.230Z,1.70
2018-08-22T07:17:20.260Z,2.57
2018-08-22T07:19:47.883Z,1.93
2018-08-22T07:22:16.807Z,2.20
2018-08-22T07:29:38.586Z,3.20
2018-08-22T07:34:33.824Z,2.30
2018-08-22T07:41:57.234Z,2.00
2018-08-22T07:44:26.141Z,1.60
2018-08-22T08:33:49.778Z,2.00
2018-08-22T08:36:17.665Z,2.00
2018-08-22T08:41:12.362Z,1.70
2018-08-22T08:43:42.230Z,1.40
2018-08-22T08:46:09.993Z,1.75
2018-08-22T08:48:38.632Z,1.60
2018-08-22T08:51:06.484Z,1.70
2018-08-22T08:53:35.450Z,1.80
2018-08-22T08:56:04.044Z,1.60
2018-08-22T08:58:31.783Z,1.50
2018-08-22T10:47:22.159Z,1.43
2018-08-22T10:49:50.849Z,1.20
2018-08-22T10:52:19.466Z,1.27
2018-08-22T10:54:47.220Z,1.57
2018-08-22T10:57:15.180Z,1.20
2018-08-22T11:02:10.910Z,1.30
2018-08-22T11:04:38.691Z,1.10
2018-08-22T11:07:07.351Z,1.40
2018-08-22T11:09:35.103Z,1.10
2018-08-22T11:12:03.006Z,1.20
2018-08-22T11:14:31.618Z,1.50
2018-08-22T11:17:00.234Z,1.40
2018-08-22T11:19:28.674Z,1.70
2018-08-22T11:24:36.422Z,1.20
2018-08-22T11:27:09.770Z,1.30
2018-08-22T11:29:42.951Z,1.67
2018-08-22T11:32:16.099Z,1.30
2018-08-22T11:34:51.133Z,1.00
2018-08-22T11:37:19.314Z,1.80
2018-08-22T11:39:49.092Z,1.50
2018-08-22T11:42:18.200Z,1.30
2018-08-22T11:44:46.702Z,1.17
2018-08-22T11:47:15.226Z,1.73
2018-08-22T11:49:43.381Z,1.50
2018-08-22T11:52:12.413Z,1.20
2018-08-22T11:54:40.320Z,1.60
2018-08-22T11:57:08.926Z,1.50
2018-08-22T11:59:36.571Z,1.33
2018-08-22T12:02:04.615Z,1.30
2018-08-22T12:07:00.972Z,1.17
2018-08-22T12:09:28.780Z,1.20
2018-08-22T12:11:57.717Z,1.30
2018-08-22T12:14:25.342Z,1.47
2018-08-22T12:16:53.116Z,1.30
2018-08-22T12:19:26.763Z,1.20
2018-08-22T12:22:01.337Z,1.20
2018-08-22T12:24:29.278Z,1.60
2018-08-22T12:26:57.450Z,1.10
2018-08-22T12:29:26.423Z,1.10
2018-08-22T12:31:54.258Z,1.57
2018-08-22T12:34:21.947Z,1.23
2018-08-22T12:36:49.692Z,1.30
2018-08-22T12:39:17.311Z,1.30
2018-08-22T12:41:45.068Z,1.23
2018-08-22T12:46:39.854Z,1.20
2018-08-22T12:49:07.691Z,1.30
2018-08-22T12:54:03.178Z,1.47
2018-08-22T12:56:30.865Z,1.40
2018-08-22T13:38:16.004Z,1.30
2018-08-22T13:40:43.730Z,1.00
2018-08-22T13:48:08.359Z,1.10
2018-08-22T14:35:04.569Z,1.00
2018-08-22T14:37:32.583Z,1.20
2018-08-22T15:31:35.738Z,1.50
2018-08-22T15:34:03.511Z,0.97
2018-08-22T15:36:33.005Z,1.27
2018-08-22T15:41:27.974Z,1.37
2018-08-22T16:03:32.752Z,1.37
2018-08-22T16:06:00.494Z,1.23
2018-08-22T16:25:54.669Z,1.40
2018-08-22T16:28:23.416Z,1.40
2018-08-22T16:30:56.952Z,1.60
2018-08-22T16:33:19.364Z,1.50
2018-08-22T16:35:47.294Z,1.20
2018-08-22T16:38:15.752Z,1.40
2018-08-22T16:55:41.943Z,1.70
2018-08-22T16:58:10.205Z,1.50
2018-08-22T17:00:43.595Z,1.67
2018-08-22T17:03:11.528Z,1.80
2018-08-22T17:05:39.265Z,2.03
2018-08-22T17:08:07.045Z,1.50
2018-08-22T17:10:51.644Z,1.90
2018-08-22T17:13:31.536Z,1.57
2018-08-22T17:16:00.622Z,1.90
2018-08-22T23:21:39.902Z,2.70
2018-08-22T23:24:13.940Z,2.50
2018-08-22T23:29:08.726Z,2.20
2018-08-22T23:34:03.969Z,2.30
2018-08-22T23:36:31.760Z,1.80
2018-08-22T23:38:59.414Z,2.00
2018-08-22T23:41:27.222Z,2.40
2018-08-22T23:43:54.978Z,2.10
2018-08-22T23:46:23.946Z,2.10
2018-08-22T23:48:55.653Z,2.10
2018-08-22T23:51:23.971Z,2.10
2018-08-22T23:58:53.034Z,2.30
